createdAt,value
2019-03-21T00:01:34.949Z,0.50
2019-03-21T00:04:05.770Z,0.60
2019-03-21T00:06:33.375Z,0.70
2019-03-21T00:09:01.039Z,0.60
2019-03-21T00:11:59.800Z,0.73
2019-03-21T00:14:42.999Z,0.60
2019-03-21T00:17:10.759Z,0.40
2019-03-21T00:19:38.366Z,0.50
2019-03-21T00:22:05.962Z,0.70
2019-03-21T00:24:33.568Z,0.60
2019-03-21T00:27:01.178Z,0.67
2019-03-21T00:29:28.786Z,0.70
2019-03-21T00:31:56.383Z,0.70
2019-03-21T00:34:23.972Z,0.50
2019-03-21T00:36:51.570Z,0.70
2019-03-21T00:39:19.220Z,0.70
2019-03-21T00:41:46.780Z,1.13
2019-03-21T00:44:18.450Z,0.70
2019-03-21T00:46:43.918Z,0.67
2019-03-21T00:49:11.513Z,0.63
2019-03-21T00:51:39.118Z,0.93
2019-03-21T00:54:06.728Z,0.80
2019-03-21T00:56:34.324Z,1.47
2019-03-21T00:59:01.924Z,0.90
2019-03-21T01:01:29.521Z,0.60
2019-03-21T01:03:57.128Z,1.27
2019-03-21T01:06:24.732Z,0.63
2019-03-21T01:08:52.360Z,0.67
2019-03-21T01:11:19.994Z,1.00
2019-03-21T01:13:47.622Z,1.13
2019-03-21T01:16:15.267Z,0.83
2019-03-21T01:18:42.878Z,0.63
2019-03-21T01:21:10.496Z,0.77
2019-03-21T01:23:38.096Z,0.70
2019-03-21T01:26:05.705Z,0.63
2019-03-21T01:28:33.307Z,0.80
2019-03-21T01:31:01.019Z,0.97
2019-03-21T01:33:28.607Z,0.73
2019-03-21T01:35:56.196Z,0.80
2019-03-21T01:38:23.809Z,1.00
2019-03-21T01:40:51.578Z,0.80
2019-03-21T01:43:19.298Z,0.90
2019-03-21T01:45:46.916Z,1.27
2019-03-21T01:48:14.519Z,1.13
2019-03-21T01:50:42.115Z,0.87
2019-03-21T01:53:09.749Z,0.90
2019-03-21T01:55:37.346Z,0.77
2019-03-21T01:58:04.962Z,0.77
2019-03-21T02:00:34.528Z,0.93
2019-03-21T02:03:02.150Z,1.03
2019-03-21T02:05:29.732Z,1.10
2019-03-21T02:07:57.356Z,1.40
2019-03-21T02:10:24.983Z,0.80
2019-03-21T02:12:52.547Z,1.17
2019-03-21T02:15:20.182Z,1.10
2019-03-21T02:17:47.835Z,1.10
2019-03-21T02:20:15.571Z,0.80
2019-03-21T02:22:43.174Z,1.17
2019-03-21T02:25:22.469Z,1.20
2019-03-21T02:27:50.323Z,0.90
2019-03-21T02:30:20.286Z,1.00
2019-03-21T02:32:49.698Z,0.90
2019-03-21T02:35:17.291Z,1.07
2019-03-21T02:37:44.903Z,1.30
2019-03-21T02:40:14.809Z,0.77
2019-03-21T02:42:42.440Z,0.80
2019-03-21T02:45:11.283Z,1.30
2019-03-21T02:47:38.959Z,0.60
2019-03-21T02:50:09.627Z,1.17
2019-03-21T02:52:37.235Z,0.77
2019-03-21T02:55:05.198Z,0.90
2019-03-21T02:57:32.791Z,1.00
2019-03-21T03:00:00.497Z,0.70
2019-03-21T03:02:28.096Z,1.10
2019-03-21T03:04:55.700Z,0.90
2019-03-21T03:07:23.297Z,0.87
2019-03-21T03:09:50.891Z,1.23
2019-03-21T03:12:18.507Z,1.23
2019-03-21T03:14:46.107Z,1.30
2019-03-21T03:17:13.813Z,1.20
2019-03-21T03:19:41.446Z,1.43
2019-03-21T03:22:09.095Z,1.27
2019-03-21T03:24:37.398Z,1.67
2019-03-21T03:27:04.999Z,1.23
2019-03-21T03:29:32.604Z,1.20
2019-03-21T03:32:00.293Z,1.27
2019-03-21T03:34:31.003Z,0.90
2019-03-21T03:36:58.595Z,1.17
2019-03-21T03:39:26.208Z,1.17
2019-03-21T03:41:53.819Z,1.13
2019-03-21T03:44:21.417Z,1.07
2019-03-21T03:46:49.014Z,1.30
2019-03-21T03:49:16.640Z,0.97
2019-03-21T03:51:44.256Z,1.60
2019-03-21T03:54:11.868Z,1.47
2019-03-21T03:56:39.480Z,1.57
2019-03-21T03:59:07.085Z,1.53
2019-03-21T04:01:34.699Z,1.93
2019-03-21T04:04:02.305Z,1.53
2019-03-21T04:06:29.937Z,1.40
2019-03-21T04:08:57.568Z,1.57
2019-03-21T04:11:25.175Z,1.87
2019-03-21T04:13:52.863Z,1.43
2019-03-21T04:16:20.492Z,1.63
2019-03-21T04:18:48.092Z,1.30
2019-03-21T04:21:15.783Z,1.30
2019-03-21T04:23:43.408Z,1.70
2019-03-21T04:26:14.651Z,1.63
2019-03-21T04:28:42.346Z,1.80
2019-03-21T04:31:09.954Z,1.23
2019-03-21T04:33:37.569Z,1.63
2019-03-21T04:36:05.162Z,1.20
2019-03-21T04:38:32.757Z,1.40
2019-03-21T04:41:00.357Z,1.40
2019-03-21T04:43:27.966Z,1.20
2019-03-21T04:46:03.263Z,1.20
2019-03-21T04:48:25.106Z,1.83
2019-03-21T04:50:52.703Z,1.10
2019-03-21T04:53:20.326Z,2.00
2019-03-21T04:55:47.924Z,1.50
2019-03-21T04:58:15.549Z,1.63
2019-03-21T05:00:43.211Z,1.57
2019-03-21T05:03:10.888Z,1.57
2019-03-21T05:05:38.577Z,1.60
2019-03-21T05:08:06.207Z,1.73
2019-03-21T05:10:33.812Z,1.90
2019-03-21T05:13:01.407Z,1.67
2019-03-21T05:15:34.435Z,1.70
2019-03-21T05:18:13.851Z,1.60
2019-03-21T05:20:41.481Z,2.20
2019-03-21T05:23:09.092Z,2.00
2019-03-21T05:25:36.688Z,2.33
2019-03-21T05:28:04.296Z,1.83
2019-03-21T05:30:52.754Z,2.03
2019-03-21T05:33:20.373Z,1.63
2019-03-21T05:35:47.977Z,1.90
2019-03-21T05:38:15.642Z,1.90
2019-03-21T05:40:43.271Z,2.00
2019-03-21T05:43:14.260Z,1.30
2019-03-21T05:45:41.855Z,2.27
2019-03-21T05:48:09.465Z,1.73
2019-03-21T05:50:37.093Z,2.03
2019-03-21T05:53:04.710Z,2.17
2019-03-21T05:55:32.299Z,2.00
2019-03-21T05:57:59.911Z,2.30
2019-03-21T06:00:34.916Z,2.37
2019-03-21T06:03:03.268Z,2.67
2019-03-21T06:05:30.876Z,2.50
2019-03-21T06:08:10.987Z,2.00
2019-03-21T06:10:38.588Z,1.67
2019-03-21T06:13:06.188Z,1.83
2019-03-21T06:15:34.763Z,2.00
2019-03-21T06:18:30.175Z,2.20
2019-03-21T06:21:04.095Z,1.77
2019-03-21T06:24:00.564Z,2.00
2019-03-21T06:26:58.409Z,2.20
2019-03-21T06:29:26.012Z,1.70
2019-03-21T06:31:53.616Z,1.80
2019-03-21T06:34:21.231Z,1.90
2019-03-21T06:36:48.844Z,2.63
2019-03-21T06:39:16.455Z,1.90
2019-03-21T06:41:44.067Z,2.37
2019-03-21T06:44:11.697Z,1.97
2019-03-21T06:46:48.738Z,1.93
2019-03-21T06:49:08.808Z,2.40
2019-03-21T06:51:36.413Z,2.60
2019-03-21T06:54:04.016Z,1.73
2019-03-21T06:56:31.655Z,1.67
2019-03-21T06:58:59.256Z,2.07
2019-03-21T07:01:26.860Z,1.80
2019-03-21T07:03:54.477Z,2.00
2019-03-21T07:06:23.010Z,2.17
2019-03-21T07:08:50.632Z,2.07
2019-03-21T07:11:18.257Z,2.43
2019-03-21T07:13:45.949Z,2.70
2019-03-21T07:16:13.588Z,2.10
2019-03-21T07:18:41.199Z,1.50
2019-03-21T07:21:08.844Z,2.43
2019-03-21T07:23:36.461Z,3.10
2019-03-21T07:26:06.597Z,1.90
2019-03-21T07:28:33.679Z,2.27
2019-03-21T07:31:01.790Z,2.77
2019-03-21T07:33:29.408Z,1.77
2019-03-21T07:35:57.008Z,1.93
2019-03-21T07:38:24.679Z,2.87
2019-03-21T07:40:53.083Z,1.93
2019-03-21T07:43:22.291Z,2.57
2019-03-21T07:45:50.239Z,2.17
2019-03-21T07:48:17.838Z,2.37
2019-03-21T07:50:45.438Z,1.43
2019-03-21T07:53:13.052Z,2.10
2019-03-21T07:55:40.648Z,1.93
2019-03-21T07:58:08.270Z,1.70
2019-03-21T08:00:35.905Z,1.80
2019-03-21T08:03:03.522Z,1.90
2019-03-21T08:05:39.748Z,1.77
2019-03-21T08:08:00.728Z,2.10
2019-03-21T08:10:28.330Z,2.10
2019-03-21T08:12:56.144Z,2.00
2019-03-21T08:15:23.763Z,1.90
2019-03-21T08:17:51.377Z,2.23
2019-03-21T08:20:18.987Z,2.03
2019-03-21T08:22:46.621Z,1.93
2019-03-21T08:25:14.283Z,1.80
2019-03-21T08:27:41.901Z,1.90
2019-03-21T08:30:25.114Z,2.70
2019-03-21T08:32:52.720Z,1.90
2019-03-21T08:35:20.337Z,2.20
2019-03-21T08:37:48.027Z,2.33
2019-03-21T08:40:15.643Z,1.87
2019-03-21T08:42:43.267Z,1.80
2019-03-21T08:45:10.877Z,1.93
2019-03-21T08:47:38.515Z,1.83
2019-03-21T08:50:06.283Z,1.90
2019-03-21T08:52:33.919Z,1.80
2019-03-21T08:55:01.531Z,1.47
2019-03-21T08:57:29.189Z,1.80
2019-03-21T08:59:56.836Z,1.93
2019-03-21T09:02:24.468Z,1.97
2019-03-21T09:04:52.096Z,1.87
2019-03-21T09:07:19.732Z,1.80
2019-03-21T09:09:47.461Z,1.80
2019-03-21T09:12:15.191Z,2.40
2019-03-21T09:14:45.098Z,1.80
2019-03-21T09:17:12.711Z,2.00
2019-03-21T09:19:40.325Z,1.77
2019-03-21T09:22:07.934Z,1.90
2019-03-21T09:24:35.539Z,2.10
2019-03-21T09:27:03.160Z,1.47
2019-03-21T09:29:30.784Z,1.87
2019-03-21T09:31:58.399Z,1.73
2019-03-21T09:34:26.012Z,1.57
2019-03-21T09:36:53.632Z,1.80
2019-03-21T09:39:21.275Z,2.10
2019-03-21T09:41:48.929Z,1.90
2019-03-21T09:44:23.086Z,1.50
2019-03-21T09:46:51.325Z,1.70
2019-03-21T09:49:18.963Z,1.83
2019-03-21T09:51:46.624Z,1.50
2019-03-21T09:54:14.240Z,1.80
2019-03-21T09:56:41.855Z,1.47
2019-03-21T09:59:09.470Z,1.60
2019-03-21T10:01:37.079Z,1.47
2019-03-21T10:04:04.705Z,1.53
2019-03-21T10:06:32.344Z,1.47
2019-03-21T10:09:00.031Z,1.40
2019-03-21T10:11:27.645Z,1.23
2019-03-21T10:13:55.269Z,1.30
2019-03-21T10:16:22.879Z,1.53
2019-03-21T10:18:50.493Z,1.10
2019-03-21T10:21:18.112Z,1.70
2019-03-21T10:23:45.720Z,1.30
2019-03-21T10:26:13.331Z,1.20
2019-03-21T10:28:40.950Z,1.30
2019-03-21T10:31:08.659Z,1.13
2019-03-21T10:33:36.271Z,1.27
2019-03-21T10:36:03.923Z,1.57
2019-03-21T10:38:31.507Z,1.10
2019-03-21T10:40:59.111Z,1.50
2019-03-21T10:43:26.754Z,1.33
2019-03-21T10:45:54.359Z,1.20
2019-03-21T10:48:23.537Z,1.30
2019-03-21T10:50:51.303Z,1.37
2019-03-21T10:53:18.909Z,1.53
2019-03-21T10:55:46.498Z,1.40
2019-03-21T10:58:14.125Z,1.40
2019-03-21T11:00:41.737Z,1.40
2019-03-21T11:03:09.339Z,1.40
2019-03-21T11:05:36.975Z,1.60
2019-03-21T11:08:05.096Z,1.60
2019-03-21T11:10:32.696Z,1.40
2019-03-21T11:13:00.314Z,1.27
2019-03-21T11:15:28.021Z,1.70
2019-03-21T11:17:55.663Z,1.97
2019-03-21T11:20:31.043Z,1.40
2019-03-21T11:22:58.663Z,1.77
2019-03-21T11:25:26.370Z,1.90
2019-03-21T11:27:53.965Z,1.93
2019-03-21T11:30:29.301Z,1.60
2019-03-21T11:33:00.325Z,1.93
2019-03-21T11:35:27.922Z,1.77
2019-03-21T11:37:55.549Z,2.70
2019-03-21T11:40:23.150Z,2.60
2019-03-21T11:42:50.779Z,2.80
2019-03-21T11:45:18.373Z,2.33
2019-03-21T11:47:46.029Z,2.40
2019-03-21T11:50:13.625Z,1.90
2019-03-21T11:52:41.410Z,2.40
2019-03-21T11:55:09.374Z,2.27
2019-03-21T11:57:36.948Z,2.10
2019-03-21T12:00:05.774Z,2.47
2019-03-21T12:02:33.371Z,2.70
2019-03-21T12:05:01.042Z,2.60
2019-03-21T12:07:28.634Z,2.90
2019-03-21T12:09:56.236Z,2.37
2019-03-21T12:12:23.926Z,3.00
2019-03-21T12:14:51.546Z,3.20
2019-03-21T12:17:19.682Z,2.40
2019-03-21T12:19:47.290Z,2.90
2019-03-21T12:22:29.149Z,2.70
2019-03-21T12:24:46.966Z,2.40
2019-03-21T12:27:14.565Z,2.60
2019-03-21T12:29:42.192Z,2.10
2019-03-21T12:32:11.044Z,2.60
2019-03-21T12:34:38.636Z,2.33
2019-03-21T12:37:06.243Z,2.60
2019-03-21T12:39:33.857Z,2.50
2019-03-21T12:42:01.456Z,2.37
2019-03-21T12:44:29.076Z,2.43
2019-03-21T12:46:56.684Z,1.73
2019-03-21T12:49:24.299Z,2.20
2019-03-21T12:51:51.942Z,2.83
2019-03-21T12:54:19.546Z,2.30
2019-03-21T12:56:47.149Z,2.40
2019-03-21T12:59:14.786Z,2.03
2019-03-21T13:01:42.379Z,1.97
2019-03-21T13:04:10.000Z,2.10
2019-03-21T13:06:37.597Z,2.20
2019-03-21T13:09:06.627Z,1.90
2019-03-21T13:11:34.217Z,2.00
2019-03-21T13:14:01.920Z,1.90
2019-03-21T13:16:29.519Z,2.33
2019-03-21T13:18:57.194Z,2.40
2019-03-21T13:21:25.899Z,2.17
2019-03-21T13:23:55.960Z,2.30
2019-03-21T13:26:23.592Z,2.27
2019-03-21T13:28:51.195Z,2.30
2019-03-21T13:31:18.829Z,2.10
2019-03-21T13:33:46.458Z,2.10
2019-03-21T13:36:14.144Z,2.30
2019-03-21T13:38:41.759Z,1.93
2019-03-21T13:41:09.366Z,2.17
2019-03-21T13:43:37.021Z,2.10
2019-03-21T13:46:04.666Z,2.30
2019-03-21T13:48:32.271Z,2.00
2019-03-21T13:50:59.878Z,2.27
2019-03-21T13:53:27.494Z,2.40
2019-03-21T13:55:55.110Z,2.33
2019-03-21T13:58:22.726Z,2.50
2019-03-21T14:00:50.331Z,2.27
2019-03-21T14:03:25.142Z,2.10
2019-03-21T14:05:47.455Z,1.87
2019-03-21T14:08:15.088Z,2.20
2019-03-21T14:10:42.684Z,1.73
2019-03-21T14:13:10.290Z,2.00
2019-03-21T14:15:37.926Z,2.00
2019-03-21T14:18:05.531Z,2.10
2019-03-21T14:20:33.132Z,1.87
2019-03-21T14:23:00.723Z,1.90
2019-03-21T14:25:28.425Z,1.80
2019-03-21T14:27:56.025Z,1.60
2019-03-21T14:30:23.629Z,2.00
2019-03-21T14:32:51.241Z,1.53
2019-03-21T14:35:18.829Z,1.53
2019-03-21T14:37:46.445Z,1.60
2019-03-21T14:40:14.506Z,1.47
2019-03-21T14:42:42.447Z,1.50
2019-03-21T14:45:10.860Z,1.60
2019-03-21T14:47:38.474Z,2.20
2019-03-21T14:50:06.995Z,1.70
2019-03-21T14:52:34.687Z,1.70
2019-03-21T14:55:02.295Z,1.60
2019-03-21T14:57:29.906Z,2.10
2019-03-21T14:59:57.543Z,1.90
2019-03-21T15:02:25.146Z,1.70
2019-03-21T15:04:52.775Z,1.80
2019-03-21T15:07:20.385Z,2.10
2019-03-21T15:09:47.980Z,1.80
2019-03-21T15:12:15.615Z,1.93
2019-03-21T15:14:43.216Z,1.53
2019-03-21T15:17:10.817Z,1.97
2019-03-21T15:19:39.351Z,1.67
2019-03-21T15:22:07.132Z,1.60
2019-03-21T15:24:34.725Z,1.70
2019-03-21T15:27:02.363Z,1.90
2019-03-21T15:29:30.015Z,1.80
2019-03-21T15:31:59.737Z,1.90
2019-03-21T15:34:27.365Z,2.03
2019-03-21T15:36:54.962Z,1.70
2019-03-21T15:39:22.581Z,1.50
2019-03-21T15:41:50.201Z,1.67
2019-03-21T15:44:17.795Z,1.80
2019-03-21T15:46:45.391Z,1.90
2019-03-21T15:49:12.986Z,1.63
2019-03-21T15:51:40.579Z,1.83
2019-03-21T15:54:08.190Z,1.70
2019-03-21T15:56:38.968Z,1.80
2019-03-21T15:59:06.574Z,1.60
2019-03-21T16:01:34.183Z,2.10
2019-03-21T16:04:01.825Z,1.97
2019-03-21T16:06:29.424Z,2.33
2019-03-21T16:08:57.023Z,1.90
2019-03-21T16:11:24.632Z,1.83
2019-03-21T16:13:52.251Z,1.70
2019-03-21T16:16:19.937Z,2.17
2019-03-21T16:18:47.537Z,1.90
2019-03-21T16:21:15.136Z,2.00
2019-03-21T16:23:42.742Z,2.20
2019-03-21T16:26:10.338Z,1.93
2019-03-21T16:28:37.938Z,1.93
2019-03-21T16:31:05.544Z,2.20
2019-03-21T16:33:33.144Z,2.27
2019-03-21T16:36:00.752Z,1.70
2019-03-21T16:38:28.355Z,2.00
2019-03-21T16:40:55.965Z,1.70
2019-03-21T16:43:23.567Z,1.70
2019-03-21T16:45:51.176Z,1.80
2019-03-21T16:48:18.763Z,2.03
2019-03-21T16:50:46.359Z,2.00
2019-03-21T16:53:13.940Z,1.90
2019-03-21T16:55:41.526Z,2.40
2019-03-21T16:58:09.134Z,1.93
2019-03-21T17:00:36.727Z,1.80
2019-03-21T17:03:04.656Z,1.70
2019-03-21T17:05:32.262Z,1.70
2019-03-21T17:08:10.480Z,1.47
2019-03-21T17:10:30.595Z,1.80
2019-03-21T17:12:58.472Z,2.10
2019-03-21T17:15:26.078Z,2.00
2019-03-21T17:17:53.711Z,1.60
2019-03-21T17:20:21.321Z,1.70
2019-03-21T17:22:48.949Z,1.90
2019-03-21T17:25:16.540Z,1.40
2019-03-21T17:27:44.137Z,1.87
2019-03-21T17:30:12.000Z,1.70
2019-03-21T17:32:40.119Z,1.70
2019-03-21T17:35:07.823Z,2.00
2019-03-21T17:37:35.525Z,1.90
2019-03-21T17:40:04.804Z,2.03
2019-03-21T17:42:32.424Z,1.60
2019-03-21T17:45:00.095Z,1.80
2019-03-21T17:47:27.708Z,1.60
2019-03-21T17:49:55.325Z,1.80
2019-03-21T17:52:23.026Z,2.20
2019-03-21T17:54:50.727Z,1.60
2019-03-21T17:57:18.403Z,1.60
2019-03-21T17:59:46.022Z,1.63
2019-03-21T18:02:13.872Z,2.10
2019-03-21T18:04:41.492Z,2.20
2019-03-21T18:07:09.169Z,2.40
2019-03-21T18:09:36.928Z,1.90
2019-03-21T18:12:04.581Z,2.10
2019-03-21T18:14:32.197Z,2.00
2019-03-21T18:16:59.851Z,2.20
2019-03-21T18:19:27.490Z,2.40
2019-03-21T18:21:55.116Z,1.80
2019-03-21T18:24:22.836Z,1.90
2019-03-21T18:26:50.526Z,2.33
2019-03-21T18:29:18.163Z,2.03
2019-03-21T18:31:45.815Z,2.10
2019-03-21T18:34:13.517Z,1.87
2019-03-21T18:36:41.176Z,2.20
2019-03-21T18:39:10.837Z,2.17
2019-03-21T18:41:38.520Z,2.20
2019-03-21T18:44:08.671Z,2.43
2019-03-21T18:46:36.371Z,1.70
2019-03-21T18:49:04.050Z,3.03
2019-03-21T18:51:31.658Z,3.00
2019-03-21T18:53:59.310Z,2.93
2019-03-21T18:56:26.990Z,3.37
2019-03-21T18:58:57.668Z,2.33
2019-03-21T19:01:25.370Z,2.30
2019-03-21T19:03:53.040Z,2.17
2019-03-21T19:06:20.819Z,2.70
2019-03-21T19:08:48.454Z,1.60
2019-03-21T19:11:16.183Z,1.50
2019-03-21T19:13:47.046Z,1.07
2019-03-21T19:16:14.729Z,0.60
2019-03-21T19:18:42.342Z,0.70
2019-03-21T19:21:10.103Z,0.90
2019-03-21T19:23:37.743Z,0.70
2019-03-21T19:26:05.378Z,0.70
2019-03-21T19:28:32.995Z,0.40
2019-03-21T19:31:00.646Z,0.60
2019-03-21T19:33:28.301Z,0.40
2019-03-21T19:35:55.933Z,0.50
2019-03-21T19:38:23.993Z,0.50
2019-03-21T19:40:51.875Z,0.37
2019-03-21T19:43:19.455Z,0.40
2019-03-21T19:45:49.699Z,0.30
2019-03-21T19:48:17.382Z,0.40
2019-03-21T19:50:45.048Z,0.40
2019-03-21T19:53:12.685Z,0.30
2019-03-21T19:55:40.328Z,0.30
2019-03-21T19:58:08.142Z,0.53
2019-03-21T20:00:35.783Z,0.40
2019-03-21T20:03:06.180Z,0.50
2019-03-21T20:05:34.897Z,0.40
2019-03-21T20:08:02.628Z,0.43
2019-03-21T20:10:30.250Z,0.30
2019-03-21T20:12:57.882Z,0.40
2019-03-21T20:15:25.560Z,0.50
2019-03-21T20:17:55.306Z,0.50
2019-03-21T20:20:22.943Z,0.73
2019-03-21T20:22:50.540Z,0.50
2019-03-21T20:25:18.297Z,0.60
2019-03-21T20:27:48.721Z,0.40
2019-03-21T20:30:19.463Z,0.30
2019-03-21T20:32:49.613Z,0.60
2019-03-21T20:35:20.282Z,0.30
2019-03-21T20:37:47.927Z,0.30
2019-03-21T20:40:16.099Z,0.50
2019-03-21T20:42:43.722Z,0.60
2019-03-21T20:45:13.685Z,0.40
2019-03-21T20:47:42.071Z,0.40
2019-03-21T20:50:09.955Z,0.40
2019-03-21T20:52:40.562Z,0.40
2019-03-21T20:55:08.891Z,0.40
2019-03-21T20:57:39.479Z,0.20
2019-03-21T21:00:10.645Z,0.47
2019-03-21T21:02:38.291Z,0.40
2019-03-21T21:05:06.058Z,0.60
2019-03-21T21:07:33.667Z,0.80
2019-03-21T21:10:01.330Z,0.70
2019-03-21T21:12:30.449Z,0.87
2019-03-21T21:14:58.073Z,0.50
2019-03-21T21:17:25.871Z,0.63
2019-03-21T21:19:56.271Z,0.57
2019-03-21T21:22:23.871Z,0.87
2019-03-21T21:24:51.598Z,0.50
2019-03-21T21:27:23.399Z,0.80
2019-03-21T21:29:51.009Z,0.60
2019-03-21T21:32:18.690Z,0.67
2019-03-21T21:35:11.498Z,0.73
2019-03-21T21:37:39.807Z,0.53
2019-03-21T21:40:10.550Z,0.70
2019-03-21T21:42:41.263Z,0.80
2019-03-21T21:45:09.754Z,0.70
2019-03-21T21:47:37.454Z,0.67
2019-03-21T21:50:07.145Z,0.90
2019-03-21T21:52:42.008Z,0.80
2019-03-21T21:55:07.296Z,0.60
2019-03-21T21:57:38.247Z,0.60
2019-03-21T22:00:06.994Z,0.70
2019-03-21T22:02:34.651Z,0.70
2019-03-21T22:05:02.364Z,0.97
2019-03-21T22:07:30.025Z,1.30
2019-03-21T22:09:57.686Z,0.63
2019-03-21T22:12:28.143Z,0.30
2019-03-21T22:14:58.036Z,0.30
2019-03-21T22:17:25.652Z,0.20
2019-03-21T22:19:53.268Z,0.40
2019-03-21T22:22:20.956Z,0.40
2019-03-21T22:24:51.034Z,0.30
2019-03-21T22:27:18.726Z,0.40
2019-03-21T22:29:46.428Z,0.30
2019-03-21T22:32:14.122Z,0.40
2019-03-21T22:34:41.841Z,0.30
2019-03-21T22:37:09.483Z,0.30
2019-03-21T22:39:37.090Z,0.40
2019-03-21T22:42:06.634Z,0.37
2019-03-21T22:44:34.297Z,0.43
2019-03-21T22:47:01.890Z,0.40
2019-03-21T22:49:29.493Z,0.17
2019-03-21T22:51:57.096Z,0.43
2019-03-21T22:54:24.691Z,0.40
2019-03-21T22:56:52.343Z,0.40
2019-03-21T22:59:19.950Z,0.40
2019-03-21T23:01:47.656Z,0.37
2019-03-21T23:04:16.536Z,0.23
2019-03-21T23:06:46.692Z,0.20
2019-03-21T23:09:17.250Z,0.40
2019-03-21T23:11:44.900Z,0.30
2019-03-21T23:14:12.511Z,0.30
2019-03-21T23:16:42.339Z,0.30
2019-03-21T23:19:09.938Z,0.30
2019-03-21T23:21:37.575Z,0.20
2019-03-21T23:24:05.188Z,0.30
2019-03-21T23:26:32.836Z,0.30
2019-03-21T23:29:00.468Z,0.30
2019-03-21T23:31:32.278Z,0.30
2019-03-21T23:34:02.374Z,0.30
2019-03-21T23:36:32.622Z,0.70
2019-03-21T23:39:00.265Z,0.27
2019-03-21T23:41:31.043Z,0.30
2019-03-21T23:43:58.638Z,0.40
2019-03-21T23:46:26.320Z,0.33
2019-03-21T23:48:53.978Z,0.50
2019-03-21T23:51:21.586Z,0.40
2019-03-21T23:53:51.236Z,0.93
2019-03-21T23:56:18.827Z,0.37
2019-03-21T23:58:49.209Z,0.30
